Time;durP1;ratioP1;P1;durP2;ratioP2;P2;SDS_P1;SDS_P2;PMS_P1;PMS_P2;Temp;Humidity;BMP_temperature;BMP_pressure;BME280_temperature;BME280_humidity;BME280_pressure;Samples;Min_cycle;Max_cycle;Signal;HPM_P1;HPM_P2
2023/06/02 00:04:23;;;;;;;7.97;4.20;;;24.10;50.40;;;;;;10549132;28;20126;-26
2023/06/02 00:09:27;;;;;;;5.60;3.40;;;24.00;50.40;;;;;;10547943;28;20109;-24
2023/06/02 00:14:30;;;;;;;4.72;2.50;;;23.90;50.50;;;;;;10544213;28;20443;-23
2023/06/02 00:19:32;;;;;;;6.00;3.30;;;24.10;50.40;;;;;;10538889;28;20361;-23
2023/06/02 00:24:35;;;;;;;10.27;3.85;;;24.00;50.50;;;;;;10540547;28;20044;-24
2023/06/02 00:29:38;;;;;;;5.95;3.47;;;23.90;50.40;;;;;;10543406;28;20040;-24
2023/06/02 00:34:40;;;;;;;7.35;3.30;;;23.90;50.40;;;;;;10548081;28;20088;-23
2023/06/02 00:39:42;;;;;;;7.72;4.45;;;23.80;51.10;;;;;;10559573;28;20067;-24
2023/06/02 00:44:46;;;;;;;7.00;3.72;;;23.80;50.20;;;;;;10551656;28;20040;-24
2023/06/02 00:49:48;;;;;;;6.00;3.28;;;23.90;50.50;;;;;;10542981;28;20428;-24
2023/06/02 00:54:49;;;;;;;;;;;23.80;50.40;;;;;;10553112;28;20055;-24
2023/06/02 00:59:52;;;;;;;5.38;2.97;;;23.80;50.50;;;;;;10551919;28;20356;-24
2023/06/02 01:04:57;;;;;;;6.78;3.10;;;23.70;50.50;;;;;;10555684;28;20461;-24
2023/06/02 01:10:02;;;;;;;5.85;3.03;;;23.70;50.50;;;;;;10537558;28;20545;-23
2023/06/02 01:15:08;;;;;;;6.85;2.97;;;23.60;50.30;;;;;;10546994;28;20141;-23
2023/06/02 01:20:11;;;;;;;8.32;3.20;;;23.70;50.30;;;;;;10539031;28;20400;-24
2023/06/02 01:25:25;;;;;;;5.80;2.60;;;23.60;50.50;;;;;;10539425;28;20067;-24
2023/06/02 01:30:27;;;;;;;6.32;2.53;;;23.60;50.30;;;;;;10539622;28;20040;-23
2023/06/02 01:35:36;;;;;;;5.35;2.72;;;23.50;50.50;;;;;;10538931;28;20113;-24
2023/06/02 01:40:39;;;;;;;4.55;2.67;;;23.50;50.50;;;;;;10538620;28;20075;-23
2023/06/02 01:45:42;;;;;;;7.68;2.92;;;23.50;50.40;;;;;;10538341;28;20052;-24
2023/06/02 01:50:44;;;;;;;5.13;2.95;;;23.50;50.20;;;;;;10537669;28;20051;-23
2023/06/02 01:55:48;;;;;;;;;;;23.50;50.30;;;;;;10537642;28;20060;-24
2023/06/02 02:00:50;;;;;;;8.23;2.65;;;23.40;50.60;;;;;;10537882;28;19972;-24
2023/06/02 02:05:52;;;;;;;4.32;2.33;;;23.40;51.00;;;;;;10537078;28;20084;-24
2023/06/02 02:10:55;;;;;;;;;;;23.30;50.70;;;;;;10533983;28;20085;-24
2023/06/02 02:15:58;;;;;;;7.00;2.17;;;23.20;50.80;;;;;;10535733;28;19970;-24
2023/06/02 02:21:00;;;;;;;5.15;2.38;;;23.20;50.60;;;;;;10535844;28;20409;-23
2023/06/02 02:26:03;;;;;;;3.53;2.10;;;23.30;50.40;;;;;;10536005;28;20054;-23
2023/06/02 02:31:05;;;;;;;3.20;1.50;;;23.20;50.40;;;;;;10535790;28;20123;-24
2023/06/02 02:36:08;;;;;;;5.65;2.45;;;23.20;50.50;;;;;;10535138;28;20056;-24
2023/06/02 02:41:12;;;;;;;3.08;1.85;;;23.20;50.60;;;;;;10542925;28;20044;-28
2023/06/02 02:46:14;;;;;;;3.08;1.65;;;23.10;50.60;;;;;;10553478;28;20150;-24
2023/06/02 02:51:16;;;;;;;5.35;1.83;;;23.10;50.70;;;;;;10550334;28;20056;-25
2023/06/02 02:56:22;;;;;;;4.80;2.33;;;23.10;50.70;;;;;;10536474;28;20056;-23
2023/06/02 03:15:30;;;;;;;3.45;1.85;;;23.00;49.80;;;;;;10566612;27;20113;-24
2023/06/02 03:20:32;;;;;;;3.28;1.80;;;22.90;50.70;;;;;;10570796;28;20136;-24
2023/06/02 03:25:35;;;;;;;7.03;1.52;;;22.90;50.70;;;;;;10570985;28;20150;-24
2023/06/02 03:30:38;;;;;;;3.50;1.60;;;22.90;50.60;;;;;;10570276;28;20040;-25
2023/06/02 03:35:41;;;;;;;2.67;1.67;;;22.90;50.70;;;;;;10570501;28;20131;-22
2023/06/02 03:40:43;;;;;;;3.80;1.40;;;22.90;50.60;;;;;;10573780;28;20463;-24
2023/06/02 03:45:46;;;;;;;3.28;1.60;;;22.80;50.90;;;;;;10580246;28;20415;-24
2023/06/02 03:50:48;;;;;;;2.35;1.33;;;22.90;50.60;;;;;;10569870;28;20353;-25
2023/06/02 03:55:50;;;;;;;;;;;22.80;50.60;;;;;;10571807;28;20083;-24
2023/06/02 04:00:54;;;;;;;2.83;1.57;;;22.80;50.80;;;;;;10570105;28;19963;-24
2023/06/02 04:05:56;;;;;;;3.40;1.65;;;22.70;50.70;;;;;;10574181;28;20054;-24
2023/06/02 04:10:58;;;;;;;;;;;22.70;50.70;;;;;;10568695;28;20047;-24
2023/06/02 04:16:02;;;;;;;3.30;1.47;;;22.70;50.50;;;;;;10566414;28;19973;-26
2023/06/02 04:21:05;;;;;;;2.20;1.30;;;22.70;50.60;;;;;;10573140;28;20054;-24
2023/06/02 04:26:07;;;;;;;2.80;1.25;;;22.60;50.80;;;;;;10544456;28;20131;-24
2023/06/02 04:31:11;;;;;;;1.98;1.50;;;22.70;50.70;;;;;;10546568;28;20048;-24
2023/06/02 04:36:14;;;;;;;4.07;2.00;;;22.60;50.60;;;;;;10544208;28;20064;-25
2023/06/02 04:41:16;;;;;;;3.13;1.38;;;22.70;50.80;;;;;;10528835;28;20138;-24
2023/06/02 04:46:20;;;;;;;3.17;1.27;;;22.70;50.60;;;;;;10549701;28;20043;-24
2023/06/02 04:51:27;;;;;;;1.95;1.20;;;22.60;50.80;;;;;;10543179;28;20093;-25
2023/06/02 04:56:29;;;;;;;2.03;1.40;;;22.60;50.90;;;;;;10544964;28;20045;-24
2023/06/02 05:01:33;;;;;;;2.60;1.60;;;22.50;50.80;;;;;;10544404;28;20048;-27
2023/06/02 05:06:36;;;;;;;2.22;1.25;;;22.50;50.70;;;;;;10532467;28;20054;-23
2023/06/02 05:11:38;;;;;;;4.90;1.25;;;22.50;51.00;;;;;;10541809;28;20492;-25
2023/06/02 05:16:45;;;;;;;4.22;1.23;;;22.50;50.90;;;;;;10542750;28;20040;-24
2023/06/02 05:21:47;;;;;;;4.38;1.05;;;22.60;50.80;;;;;;10547035;28;20079;-24
2023/06/02 05:26:49;;;;;;;5.72;1.77;;;22.50;50.70;;;;;;10533186;28;20052;-24
2023/06/02 05:31:53;;;;;;;4.03;1.58;;;22.60;50.70;;;;;;10548318;28;20647;-26
2023/06/02 05:36:56;;;;;;;2.92;0.98;;;22.60;50.70;;;;;;10547948;28;20044;-25
2023/06/02 05:41:58;;;;;;;2.15;1.10;;;22.60;50.70;;;;;;10549879;28;20086;-24
2023/06/02 05:47:02;;;;;;;3.33;1.25;;;22.60;50.50;;;;;;10548971;28;20093;-25
2023/06/02 05:52:04;;;;;;;3.42;1.23;;;22.50;50.70;;;;;;10545885;28;20442;-24
2023/06/02 05:57:06;;;;;;;2.88;1.00;;;22.70;50.20;;;;;;10550289;28;20052;-24
2023/06/02 06:02:11;;;;;;;4.20;1.30;;;22.50;50.80;;;;;;10553313;28;20138;-24
2023/06/02 06:07:13;;;;;;;2.55;1.23;;;22.50;50.60;;;;;;10543135;28;20127;-25
2023/06/02 06:12:15;;;;;;;;;;;22.70;50.30;;;;;;10552135;28;20060;-25
2023/06/02 06:17:19;;;;;;;1.75;1.10;;;22.50;50.70;;;;;;10544973;28;19931;-24
2023/06/02 06:22:23;;;;;;;1.88;1.10;;;22.70;50.40;;;;;;10542977;28;20047;-24
2023/06/02 06:27:25;;;;;;;1.73;0.98;;;22.50;50.70;;;;;;10544319;28;20096;-24
2023/06/02 06:32:29;;;;;;;4.18;1.02;;;22.60;50.40;;;;;;10558846;28;20052;-25
2023/06/02 06:37:31;;;;;;;1.63;0.90;;;22.70;50.40;;;;;;10550387;28;20075;-24
2023/06/02 06:42:33;;;;;;;2.22;1.10;;;22.70;50.40;;;;;;10536650;28;20447;-24
2023/06/02 06:47:37;;;;;;;2.50;0.70;;;22.70;50.50;;;;;;10551426;28;20048;-25
2023/06/02 06:52:39;;;;;;;4.30;1.02;;;22.70;50.20;;;;;;10536493;28;20492;-26
2023/06/02 06:57:41;;;;;;;4.00;1.42;;;22.90;50.00;;;;;;10529653;28;20067;-25
2023/06/02 07:02:48;;;;;;;3.03;1.60;;;22.80;50.20;;;;;;10547304;28;20083;-24
2023/06/02 07:07:50;;;;;;;2.35;1.30;;;22.70;50.40;;;;;;10535444;28;20069;-25
2023/06/02 07:12:52;;;;;;;2.65;1.35;;;22.70;50.20;;;;;;10540613;28;20143;-25
2023/06/02 07:17:55;;;;;;;3.97;1.58;;;22.70;50.00;;;;;;10539349;28;20052;-25
2023/06/02 07:22:57;;;;;;;8.82;2.05;;;22.80;50.20;;;;;;10543876;28;20082;-24
2023/06/02 07:27:59;;;;;;;6.00;1.63;;;22.80;50.20;;;;;;10537988;28;20056;-24
2023/06/02 07:33:02;;;;;;;;;;;22.80;50.00;;;;;;10537754;28;20079;-25
2023/06/02 07:38:04;;;;;;;9.45;1.88;;;22.80;50.10;;;;;;10535552;28;19979;-24
2023/06/02 07:43:06;;;;;;;5.32;2.03;;;22.90;49.80;;;;;;10542747;28;20048;-25
2023/06/02 07:48:09;;;;;;;;;;;23.00;49.60;;;;;;10547134;28;20044;-24
2023/06/02 07:53:11;;;;;;;6.20;1.73;;;22.90;49.90;;;;;;10539569;28;19920;-24
2023/06/02 07:58:13;;;;;;;;;;;22.80;50.00;;;;;;10551516;28;20590;-25
2023/06/02 08:03:16;;;;;;;5.50;2.73;;;22.90;49.90;;;;;;10563713;28;20002;-25
2023/06/02 08:08:18;;;;;;;4.30;1.90;;;22.90;49.40;;;;;;10550306;28;20044;-25
2023/06/02 08:13:20;;;;;;;;;;;22.80;50.00;;;;;;10566568;28;20094;-25
2023/06/02 08:18:23;;;;;;;4.53;1.80;;;22.90;49.70;;;;;;10551014;28;20010;-25
2023/06/02 08:23:25;;;;;;;3.75;1.55;;;22.50;50.00;;;;;;10548576;28;20504;-24
2023/06/02 08:28:29;;;;;;;4.07;1.98;;;22.90;49.70;;;;;;10547114;28;20056;-25
2023/06/02 08:33:35;;;;;;;6.85;2.17;;;22.90;49.40;;;;;;10538452;28;20598;-24
2023/06/02 08:38:40;;;;;;;4.40;1.77;;;23.00;49.40;;;;;;10557620;28;20044;-24
2023/06/02 08:43:42;;;;;;;4.15;1.25;;;23.20;49.10;;;;;;10557037;28;20059;-24
2023/06/02 08:48:46;;;;;;;;;;;23.20;49.00;;;;;;10545804;28;20465;-25
2023/06/02 08:53:49;;;;;;;2.08;1.33;;;22.90;49.70;;;;;;10532746;28;20403;-24
2023/06/02 08:58:51;;;;;;;6.85;1.65;;;23.20;49.10;;;;;;10537492;28;20059;-24
2023/06/02 09:03:54;;;;;;;6.40;1.88;;;22.60;49.70;;;;;;10540177;28;20457;-24
2023/06/02 09:08:58;;;;;;;6.32;2.80;;;22.90;49.70;;;;;;10543323;28;20048;-23
2023/06/02 09:14:00;;;;;;;7.45;3.08;;;23.30;49.50;;;;;;10555256;28;20047;-23
2023/06/02 09:19:03;;;;;;;8.63;2.90;;;23.20;49.70;;;;;;10550796;28;20056;-23
2023/06/02 09:24:06;;;;;;;7.90;2.88;;;23.20;49.70;;;;;;10545720;28;20058;-23
2023/06/02 09:29:11;;;;;;;6.30;2.80;;;23.30;49.60;;;;;;10535639;28;20488;-23
2023/06/02 09:34:15;;;;;;;8.27;3.40;;;23.40;49.60;;;;;;10544760;28;20542;-24
2023/06/02 09:39:32;;;;;;;7.72;3.55;;;23.30;49.70;;;;;;10537893;28;20052;-24
2023/06/02 09:44:35;;;;;;;9.00;3.65;;;23.00;50.10;;;;;;10528686;28;20047;-25
2023/06/02 09:49:41;;;;;;;9.70;3.40;;;23.40;49.80;;;;;;10545473;28;20409;-24
2023/06/02 09:54:44;;;;;;;9.93;4.45;;;23.50;49.60;;;;;;10538311;28;20055;-25
2023/06/02 09:59:47;;;;;;;11.77;5.00;;;23.50;49.80;;;;;;10548174;28;20060;-31
2023/06/02 10:04:50;;;;;;;9.30;3.95;;;23.40;50.30;;;;;;10532178;28;20114;-25
2023/06/02 10:10:17;;;;;;;7.45;3.28;;;23.50;50.10;;;;;;10536460;28;20089;-23
2023/06/02 10:15:44;;;;;;;7.95;3.55;;;23.50;49.70;;;;;;10533947;28;20055;-24
2023/06/02 10:21:01;;;;;;;9.32;2.95;;;23.50;49.90;;;;;;10539557;28;20503;-24
2023/06/02 10:26:18;;;;;;;5.82;2.30;;;23.40;49.60;;;;;;10534283;28;20078;-24
2023/06/02 10:31:31;;;;;;;7.25;2.30;;;23.40;49.80;;;;;;10525333;28;20051;-24
2023/06/02 10:37:06;;;;;;;14.20;2.72;;;23.50;49.50;;;;;;10534459;28;20048;-24
2023/06/02 10:42:11;;;;;;;6.95;1.90;;;23.40;49.70;;;;;;10541626;28;20396;-24
2023/06/02 10:47:38;;;;;;;10.77;2.00;;;23.50;49.60;;;;;;10533213;28;20094;-24
2023/06/02 10:53:09;;;;;;;6.97;1.63;;;23.40;50.00;;;;;;10526918;28;20052;-25
2023/06/02 10:58:13;;;;;;;3.70;1.42;;;23.10;50.10;;;;;;10533107;28;20058;-25
2023/06/02 11:03:32;;;;;;;5.68;1.98;;;23.40;50.10;;;;;;10533488;28;20068;-24
2023/06/02 11:08:36;;;;;;;4.95;1.88;;;23.50;50.10;;;;;;10525925;28;20468;-24
2023/06/02 11:13:58;;;;;;;5.25;1.70;;;23.60;49.60;;;;;;10533918;28;20131;-24
2023/06/02 11:19:00;;;;;;;5.43;1.58;;;23.60;49.90;;;;;;10547877;28;20059;-24
2023/06/02 11:24:02;;;;;;;;;;;23.60;49.70;;;;;;10546030;28;20161;-25
2023/06/02 11:29:17;;;;;;;7.80;1.73;;;23.70;49.70;;;;;;10556907;28;19920;-24
2023/06/02 11:34:19;;;;;;;3.75;1.40;;;23.70;49.80;;;;;;10556552;28;20062;-24
2023/06/02 11:39:21;;;;;;;7.38;1.60;;;23.40;50.50;;;;;;10566346;28;20102;-24
2023/06/02 11:44:26;;;;;;;6.30;1.77;;;23.50;50.70;;;;;;10554218;28;20097;-24
2023/06/02 11:49:37;;;;;;;7.10;2.85;;;23.60;50.70;;;;;;10545751;28;20048;-23
2023/06/02 11:54:49;;;;;;;4.75;2.25;;;23.70;50.30;;;;;;10547000;28;20079;-24
2023/06/02 12:00:06;;;;;;;4.78;2.03;;;23.70;50.40;;;;;;10546924;28;20055;-24
2023/06/02 12:05:09;;;;;;;4.53;1.60;;;23.60;50.10;;;;;;10555024;28;20516;-24
2023/06/02 12:10:11;;;;;;;5.50;2.10;;;23.70;49.90;;;;;;10554536;28;20054;-24
2023/06/02 12:15:17;;;;;;;5.43;1.83;;;23.80;50.50;;;;;;10544514;28;20489;-26
2023/06/02 12:20:19;;;;;;;6.15;1.58;;;23.40;51.20;;;;;;10538629;28;20063;-23
2023/06/02 12:25:23;;;;;;;7.10;1.95;;;23.50;50.80;;;;;;10540751;28;20032;-23
2023/06/02 12:30:27;;;;;;;6.68;1.95;;;23.80;50.70;;;;;;10552306;28;20071;-25
2023/06/02 12:35:29;;;;;;;6.30;1.98;;;24.00;50.30;;;;;;10548496;28;20480;-24
2023/06/02 12:40:31;;;;;;;3.78;1.25;;;23.90;50.70;;;;;;10553795;28;20449;-23
2023/06/02 12:45:35;;;;;;;4.45;1.67;;;23.80;51.10;;;;;;10550073;28;20048;-24
2023/06/02 12:50:37;;;;;;;12.68;2.55;;;23.60;51.30;;;;;;10538791;28;20059;-25
2023/06/02 12:55:39;;;;;;;9.73;2.15;;;23.50;51.40;;;;;;10548963;28;20064;-25
2023/06/02 13:00:43;;;;;;;;;;;23.00;53.40;;;;;;10541306;28;20112;-24
2023/06/02 13:05:56;;;;;;;3.90;1.70;;;23.10;52.40;;;;;;10542719;28;20002;-25
2023/06/02 13:10:58;;;;;;;8.90;1.50;;;23.70;51.50;;;;;;10552970;28;20051;-25
2023/06/02 13:16:02;;;;;;;11.10;2.47;;;23.70;51.40;;;;;;10529004;28;20076;-25
2023/06/02 13:21:04;;;;;;;5.90;1.40;;;23.20;52.30;;;;;;10538645;28;20044;-25
2023/06/02 13:26:06;;;;;;;8.05;1.83;;;23.70;51.70;;;;;;10539199;28;20089;-24
2023/06/02 13:31:11;;;;;;;7.00;2.08;;;23.90;51.30;;;;;;10554442;28;20043;-25
2023/06/02 13:36:13;;;;;;;6.65;1.65;;;23.80;51.50;;;;;;10546789;28;20415;-24
2023/06/02 13:41:15;;;;;;;15.57;2.67;;;23.80;51.30;;;;;;10549584;28;20051;-24
2023/06/02 13:46:18;;;;;;;7.10;2.00;;;23.80;52.10;;;;;;10547467;28;20067;-22
2023/06/02 13:51:20;;;;;;;7.75;1.92;;;23.80;51.70;;;;;;10551656;28;20078;-24
2023/06/02 13:56:23;;;;;;;;;;;23.50;52.30;;;;;;10541696;28;20083;-24
2023/06/02 14:01:26;;;;;;;6.43;1.48;;;24.20;51.00;;;;;;10546873;28;19920;-23
2023/06/02 14:06:28;;;;;;;2.95;1.23;;;24.40;51.60;;;;;;10527741;28;20083;-24
2023/06/02 14:11:30;;;;;;;7.60;1.90;;;24.10;51.50;;;;;;10538576;28;20056;-23
2023/06/02 14:16:35;;;;;;;4.10;1.42;;;24.40;50.90;;;;;;10537132;28;20099;-23
2023/06/02 14:21:37;;;;;;;9.13;1.85;;;24.10;52.00;;;;;;10543930;28;20044;-23
2023/06/02 14:26:39;;;;;;;18.02;2.90;;;24.10;52.00;;;;;;10533413;28;20485;-29
2023/06/02 14:31:43;;;;;;;5.00;1.70;;;23.90;52.70;;;;;;10536138;28;20134;-25
2023/06/02 14:36:45;;;;;;;8.45;2.88;;;24.20;51.90;;;;;;10541673;28;20055;-24
2023/06/02 14:41:47;;;;;;;7.57;1.80;;;24.50;51.80;;;;;;10548197;28;20127;-24
2023/06/02 14:46:50;;;;;;;8.05;2.38;;;24.50;51.90;;;;;;10551137;28;20123;-24
2023/06/02 14:51:52;;;;;;;7.10;2.05;;;24.70;51.70;;;;;;10534758;28;20093;-23
2023/06/02 14:56:54;;;;;;;10.00;2.25;;;25.00;50.90;;;;;;10538838;28;20093;-24
2023/06/02 15:01:58;;;;;;;8.70;1.70;;;25.00;51.10;;;;;;10541850;28;20481;-24
2023/06/02 15:07:00;;;;;;;10.55;2.33;;;25.10;51.70;;;;;;10542622;28;20040;-23
2023/06/02 15:12:02;;;;;;;7.32;2.75;;;25.00;52.10;;;;;;10534688;28;20548;-25
2023/06/02 15:17:06;;;;;;;13.93;2.35;;;25.30;51.20;;;;;;10530945;28;20050;-24
2023/06/02 15:22:08;;;;;;;10.38;2.28;;;25.50;51.90;;;;;;10524957;28;20052;-25
2023/06/02 15:27:11;;;;;;;18.45;2.83;;;25.60;52.00;;;;;;10533270;28;20056;-24
2023/06/02 15:32:14;;;;;;;12.68;1.70;;;25.20;52.10;;;;;;10530958;28;20036;-23
2023/06/02 15:37:16;;;;;;;8.07;2.33;;;25.60;52.40;;;;;;10535295;28;20071;-23
2023/06/02 15:42:18;;;;;;;7.70;1.88;;;25.70;51.50;;;;;;10532072;28;20073;-23
2023/06/02 15:47:23;;;;;;;13.63;3.13;;;25.80;51.70;;;;;;10538511;28;20055;-24
2023/06/02 15:52:25;;;;;;;12.30;3.03;;;26.00;51.50;;;;;;10540384;28;20043;-25
2023/06/02 15:57:28;;;;;;;14.05;2.55;;;26.10;51.20;;;;;;10543164;28;20081;-23
2023/06/02 16:02:32;;;;;;;7.45;2.38;;;26.00;51.90;;;;;;10530001;28;20563;-24
2023/06/02 16:07:34;;;;;;;7.88;2.35;;;26.10;52.70;;;;;;10531586;28;20101;-22
2023/06/02 16:12:36;;;;;;;10.68;2.63;;;26.40;52.40;;;;;;10525074;28;20504;-25
2023/06/02 16:17:39;;;;;;;18.33;4.18;;;26.30;52.60;;;;;;10511180;28;20063;-23
2023/06/02 16:22:41;;;;;;;10.63;2.95;;;26.10;52.70;;;;;;10533716;28;20114;-24
2023/06/02 16:27:43;;;;;;;10.07;2.58;;;26.40;53.70;;;;;;10525096;28;20100;-24
2023/06/02 16:32:48;;;;;;;7.85;2.10;;;26.40;53.60;;;;;;10542009;28;20125;-24
2023/06/02 16:37:50;;;;;;;8.13;2.13;;;26.60;53.20;;;;;;10522193;28;20559;-24
2023/06/02 16:42:52;;;;;;;11.45;2.22;;;26.80;53.90;;;;;;10528416;28;20412;-23
2023/06/02 16:47:56;;;;;;;13.27;2.13;;;26.90;53.00;;;;;;10525376;28;20105;-24
2023/06/02 16:52:59;;;;;;;10.70;2.50;;;26.70;50.80;;;;;;10524747;28;20048;-24
2023/06/02 16:58:01;;;;;;;13.00;2.55;;;27.00;53.10;;;;;;10548432;28;20153;-24
2023/06/02 17:03:05;;;;;;;9.85;2.35;;;27.20;53.10;;;;;;10534819;28;20112;-24
2023/06/02 17:08:07;;;;;;;6.88;1.58;;;26.80;52.30;;;;;;10537164;28;20043;-24
2023/06/02 17:13:09;;;;;;;7.72;1.90;;;27.00;53.80;;;;;;10532263;28;20089;-24
2023/06/02 17:18:12;;;;;;;7.07;2.08;;;26.90;54.30;;;;;;10525255;28;20578;-25
2023/06/02 17:23:14;;;;;;;12.68;2.33;;;27.30;54.50;;;;;;10530207;28;20118;-24
2023/06/02 17:28:16;;;;;;;10.05;1.88;;;27.40;54.20;;;;;;10525643;28;20134;-23
2023/06/02 17:33:20;;;;;;;7.97;1.60;;;27.30;51.70;;;;;;10522399;28;20412;-23
2023/06/02 17:38:22;;;;;;;6.10;1.50;;;27.10;53.00;;;;;;10528479;28;20468;-24
2023/06/02 17:43:26;;;;;;;10.77;1.90;;;27.50;54.60;;;;;;10530721;28;20097;-24
2023/06/02 17:48:30;;;;;;;5.15;1.63;;;27.40;53.30;;;;;;10527291;28;20048;-25
2023/06/02 17:53:32;;;;;;;5.85;1.80;;;27.40;53.60;;;;;;10521740;28;20048;-26
2023/06/02 17:58:33;;;;;;;12.57;2.05;;;27.40;55.60;;;;;;10529265;28;20542;-24
2023/06/02 18:03:37;;;;;;;5.50;1.23;;;27.70;52.90;;;;;;10505712;28;20079;-23
2023/06/02 18:08:39;;;;;;;6.82;1.35;;;27.70;52.30;;;;;;10533574;28;20105;-23
2023/06/02 18:13:41;;;;;;;7.93;1.55;;;27.60;52.10;;;;;;10524666;28;20062;-24
2023/06/02 18:18:45;;;;;;;4.57;1.50;;;27.70;52.10;;;;;;10521235;28;20054;-25
2023/06/02 18:23:47;;;;;;;5.05;1.42;;;27.50;51.80;;;;;;10537764;28;20051;-25
2023/06/02 18:28:49;;;;;;;6.72;1.73;;;27.70;52.30;;;;;;10514762;28;20048;-24
2023/06/02 18:33:52;;;;;;;5.15;1.77;;;27.70;52.60;;;;;;10518414;28;20052;-23
2023/06/02 18:38:54;;;;;;;5.18;1.70;;;27.70;52.60;;;;;;10520086;28;20071;-24
2023/06/02 18:43:56;;;;;;;4.47;1.35;;;27.60;52.70;;;;;;10532628;28;20040;-24
2023/06/02 18:49:00;;;;;;;3.95;1.48;;;27.60;52.40;;;;;;10525412;28;20046;-23
2023/06/02 18:54:02;;;;;;;5.63;1.50;;;27.70;53.40;;;;;;10531842;28;20113;-23
2023/06/02 18:59:04;;;;;;;5.07;1.48;;;27.60;52.20;;;;;;10518455;28;20048;-26
2023/06/02 19:04:10;;;;;;;6.80;1.50;;;27.60;52.60;;;;;;10535533;28;20055;-24
2023/06/02 19:09:12;;;;;;;5.32;1.58;;;27.50;53.00;;;;;;10528295;28;20063;-26
2023/06/02 19:14:15;;;;;;;5.20;1.45;;;27.40;54.00;;;;;;10522078;28;20439;-25
2023/06/02 19:19:18;;;;;;;4.22;1.60;;;27.60;53.30;;;;;;10514525;28;20055;-25
2023/06/02 19:24:22;;;;;;;5.53;2.30;;;27.50;53.00;;;;;;10529106;28;20105;-24
2023/06/02 19:29:24;;;;;;;3.72;2.00;;;27.50;53.50;;;;;;10534328;28;20116;-24
2023/06/02 19:34:27;;;;;;;6.28;3.03;;;27.30;53.50;;;;;;10526037;28;20520;-24
2023/06/02 19:39:29;;;;;;;9.07;3.65;;;27.40;53.40;;;;;;10521860;28;20051;-22
2023/06/02 19:44:32;;;;;;;8.70;4.72;;;27.30;54.10;;;;;;10523598;28;20139;-24
2023/06/02 19:49:36;;;;;;;8.63;4.90;;;27.30;53.80;;;;;;10526896;28;20055;-23
2023/06/02 19:54:40;;;;;;;12.85;5.55;;;27.20;53.60;;;;;;10527141;28;20044;-24
2023/06/02 19:59:42;;;;;;;10.15;5.30;;;27.20;53.60;;;;;;10536739;28;20537;-24
2023/06/02 20:04:45;;;;;;;6.93;4.28;;;27.10;53.40;;;;;;10536828;28;20101;-23
2023/06/02 20:09:52;;;;;;;6.50;4.00;;;27.00;53.10;;;;;;10529956;28;20048;-25
2023/06/02 20:14:54;;;;;;;8.20;3.05;;;26.90;52.90;;;;;;10520968;28;20056;-26
2023/06/02 20:19:58;;;;;;;5.25;2.83;;;26.70;52.90;;;;;;10529248;28;20051;-25
2023/06/02 20:25:00;;;;;;;4.32;2.28;;;26.70;52.80;;;;;;10538980;28;20048;-24
2023/06/02 20:30:02;;;;;;;8.10;2.22;;;26.70;52.80;;;;;;10519842;28;20269;-24
2023/06/02 20:35:06;;;;;;;6.55;2.92;;;26.70;52.70;;;;;;10520514;28;20098;-24
2023/06/02 20:40:09;;;;;;;6.03;2.63;;;26.50;52.60;;;;;;10526861;28;20044;-24
2023/06/02 20:45:12;;;;;;;5.25;2.58;;;26.50;52.80;;;;;;10528065;28;20484;-23
2023/06/02 20:50:16;;;;;;;4.07;2.38;;;26.40;52.60;;;;;;10531977;28;20056;-25
2023/06/02 20:55:18;;;;;;;5.18;2.60;;;26.30;52.70;;;;;;10524702;28;20063;-24
2023/06/02 21:00:20;;;;;;;4.88;2.67;;;26.30;52.80;;;;;;10519984;28;20132;-24
2023/06/02 21:05:23;;;;;;;5.90;2.63;;;26.20;52.80;;;;;;10523786;28;20141;-24
2023/06/02 21:10:25;;;;;;;6.70;2.15;;;26.20;52.80;;;;;;10523661;28;20060;-25
2023/06/02 21:20:44;;;;;;;5.70;1.73;;;26.00;52.90;;;;;;10539196;28;20227;-24
2023/06/02 21:25:46;;;;;;;4.47;1.88;;;26.00;52.90;;;;;;10531231;28;20485;-24
2023/06/02 21:30:48;;;;;;;2.78;1.38;;;25.90;52.90;;;;;;10532476;28;20497;-24
2023/06/02 21:35:51;;;;;;;3.97;1.75;;;25.90;53.10;;;;;;10536328;28;20079;-24
2023/06/02 21:40:53;;;;;;;3.63;1.77;;;25.80;53.00;;;;;;10536591;28;20109;-24
2023/06/02 21:45:55;;;;;;;3.88;1.50;;;25.80;53.00;;;;;;10507426;28;20047;-24
2023/06/02 21:50:59;;;;;;;2.50;1.70;;;25.70;53.00;;;;;;10526999;28;20457;-24
2023/06/02 21:56:03;;;;;;;3.15;1.98;;;25.70;53.10;;;;;;10521726;28;20059;-24
2023/06/02 22:01:08;;;;;;;4.90;1.90;;;25.60;53.10;;;;;;10533863;28;20048;-26
2023/06/02 22:06:11;;;;;;;5.65;1.60;;;25.60;53.70;;;;;;10529505;28;20050;-24
2023/06/02 22:11:13;;;;;;;4.38;1.48;;;25.50;53.00;;;;;;10536124;28;20127;-24
2023/06/02 22:16:15;;;;;;;2.80;1.60;;;25.50;53.00;;;;;;10534563;28;20131;-24
2023/06/02 22:21:18;;;;;;;1.70;1.30;;;25.40;53.00;;;;;;10535612;28;20086;-24
2023/06/02 22:26:20;;;;;;;5.03;2.00;;;25.40;53.00;;;;;;10535068;28;20135;-22
2023/06/02 22:31:22;;;;;;;3.72;1.83;;;25.30;53.00;;;;;;10518781;28;20506;-22
2023/06/02 22:36:25;;;;;;;6.00;2.33;;;25.30;53.00;;;;;;10541345;28;20044;-22
2023/06/02 22:41:28;;;;;;;5.15;2.50;;;25.20;53.00;;;;;;10528331;28;20078;-24
2023/06/02 22:46:30;;;;;;;2.88;1.75;;;25.20;53.10;;;;;;10532252;28;20036;-23
2023/06/02 22:51:33;;;;;;;2.58;1.63;;;25.10;53.00;;;;;;10516611;28;20076;-25
2023/06/02 22:56:36;;;;;;;3.15;1.50;;;25.10;53.10;;;;;;10531019;28;20047;-24
2023/06/02 23:01:37;;;;;;;3.45;1.92;;;25.10;53.10;;;;;;10526951;28;20048;-24
2023/06/02 23:06:41;;;;;;;4.35;1.70;;;25.00;53.00;;;;;;10523764;28;20453;-23
2023/06/02 23:11:43;;;;;;;2.42;1.65;;;25.00;53.10;;;;;;10523010;28;20100;-24
2023/06/02 23:16:47;;;;;;;3.70;1.55;;;24.90;53.20;;;;;;10531540;28;20124;-23
2023/06/02 23:21:50;;;;;;;3.20;1.65;;;24.90;53.20;;;;;;10531125;28;20067;-23
2023/06/02 23:26:52;;;;;;;4.40;1.95;;;24.80;53.20;;;;;;10531467;28;20052;-23
2023/06/02 23:31:54;;;;;;;4.70;2.00;;;24.80;53.10;;;;;;10536495;28;20068;-25
2023/06/02 23:36:57;;;;;;;4.13;1.95;;;24.70;53.00;;;;;;10540967;28;20047;-24
2023/06/02 23:41:59;;;;;;;2.65;1.50;;;24.70;53.30;;;;;;10530057;28;20052;-25
2023/06/02 23:47:02;;;;;;;3.80;2.00;;;24.60;53.30;;;;;;10533527;28;20050;-24
2023/06/02 23:52:05;;;;;;;2.45;1.60;;;24.60;53.10;;;;;;10531614;28;20054;-24
2023/06/02 23:57:08;;;;;;;2.28;1.60;;;24.60;53.40;;;;;;10530920;28;20094;-24
